Aérodrome :
LOGIN :

S'inscrire | Disclaimer

   EN    FR    IT 

 










Légende :    VFR   VFR Marginal   IFR   IFR Intensif   IFR Très Intensif
Visi : 
Plafond : 
>= 8 km
>= 3000ft
5 à 8 km
1000 à 3000 ft
1500m à 5 km
500 à 1000 ft
800 à 1500m
200 à 500 ft
< 800m
< 200 ft
Symboles :   Orages  Brouillard  Fortes neiges  Fortes précipitations  Vent > 20 kt
SIGMETs :   Divers  Orages  Givrage  Turbulence  Onde Orograph.  Cendres Volcan.






- Altitude de l'aérodrome : 63 ft
- Code IATA : BZM


EHWO - Woensdrecht Airbase

DERNIER METAR :
  • 100955Z AUTO 07008KT 040V130 9999 OVC390 16/07 Q1026 BLU

METARs EXPIRÉS :
  • 100931Z AUTO 08009KT 030V120 9999 OVC390 15/06 Q1026 BLU
  • 100925Z AUTO 08009KT 030V110 9999 OVC380 15/06 Q1026 BLU NOSIG
  • 100855Z AUTO 07008KT 030V100 9999 OVC380 14/06 Q1026 BLU NOSIG
  • 100825Z AUTO 06008KT 010V110 9999 FEW390 12/06 Q1027 BLU NOSIG
  • 100755Z AUTO 06008KT 020V100 9999 OVC260 11/06 Q1027 BLU NOSIG
  • 100725Z AUTO 07009KT 020V100 9999 OVC250 09/05 Q1027 BLU

TAF TAF EHWO
Valide du 10 à 09h jusqu'au 10 à 21h UTC


100832Z 1009/1021 06008KT CAVOK



MET'MAP, la Météo Aéronautique d'un coup d'oeil ! - Copyright ORBIFLY Décembre 2007 - Disclaimer

ORBIFLY MET'MAP TEAM :

Programmation & Développement : Alexandra Zaïnal
Sur une idée originale de : Baudouin d'Aumeries
Assistance à la programmation : Marc-Olivier Méhu
Soutien technique & logistique : Manuel Goepfert

Contact : metmap@orbifly.com




SOURCES & CREDITS :

   NOAA